Time;durP1;ratioP1;P1;durP2;ratioP2;P2;SDS_P1;SDS_P2;PMS_P1;PMS_P2;Temp;Humidity;BMP_temperature;BMP_pressure;BME280_temperature;BME280_humidity;BME280_pressure;Samples;Min_cycle;Max_cycle;Signal;HPM_P1;HPM_P2
2023/11/04 00:01:36;;;;;;;9.03;4.67;;;;;;;9.34;58.55;96550.03;6921836;28;20211;-90
2023/11/04 00:04:58;;;;;;;6.53;4.80;;;;;;;9.15;57.97;96486.94;6945377;28;20218;-89
2023/11/04 00:08:19;;;;;;;5.97;5.13;;;;;;;9.33;58.40;96553.81;6940470;28;20230;-90
2023/11/04 00:11:41;;;;;;;6.67;5.00;;;;;;;9.08;58.22;96540.88;6940109;28;20279;-89
2023/11/04 00:15:03;;;;;;;9.97;5.63;;;;;;;8.90;59.39;96521.53;6930064;28;20287;-90
2023/11/04 00:18:27;;;;;;;8.77;7.60;;;;;;;9.01;60.79;96563.59;6942449;28;20228;-90
2023/11/04 00:21:49;;;;;;;6.50;4.53;;;;;;;8.83;58.78;96488.69;6935183;28;20219;-90
2023/11/04 00:25:10;;;;;;;7.80;4.97;;;;;;;9.59;57.33;96590.66;6943199;28;20204;-89
2023/11/04 00:28:33;;;;;;;6.63;4.40;;;;;;;8.47;60.71;96622.72;6943270;28;20716;-89
2023/11/04 00:31:55;;;;;;;6.20;4.50;;;;;;;8.17;60.02;96488.00;6935674;28;20216;-90
2023/11/04 00:35:18;;;;;;;5.13;4.50;;;;;;;8.52;59.90;96497.41;6959509;28;20233;-89
2023/11/04 00:38:40;;;;;;;6.77;4.53;;;;;;;9.41;58.60;96599.06;6962195;28;20223;-90
2023/11/04 00:42:02;;;;;;;5.87;4.93;;;;;;;8.21;58.61;96526.75;6947778;28;20222;-90
2023/11/04 00:45:23;;;;;;;8.77;4.83;;;;;;;8.17;59.62;96577.38;6938764;28;20210;-90
2023/11/04 00:48:52;;;;;;;9.83;4.90;;;;;;;8.95;59.41;96649.78;6938371;28;20228;-92
2023/11/04 00:52:16;;;;;;;6.13;5.00;;;;;;;8.26;59.20;96527.63;6953018;28;20208;-89
2023/11/04 00:55:37;;;;;;;5.67;4.50;;;;;;;8.36;59.64;96556.53;6965334;28;20229;-89
2023/11/04 00:58:59;;;;;;;4.83;4.37;;;;;;;8.40;59.03;96609.47;6941801;28;20226;-90
2023/11/04 01:02:21;;;;;;;4.23;3.80;;;;;;;8.11;59.22;96500.53;6942587;28;20681;-90
2023/11/04 01:05:42;;;;;;;5.20;4.70;;;;;;;7.31;61.61;96503.75;6943301;28;20206;-90
2023/11/04 01:09:06;;;;;;;9.63;5.27;;;;;;;7.65;61.45;96572.44;6941401;28;20257;-90
2023/11/04 01:12:28;;;;;;;5.93;5.07;;;;;;;8.26;59.97;96505.38;6941870;28;20256;-89
2023/11/04 01:15:52;;;;;;;6.93;5.73;;;;;;;9.13;59.00;96610.81;6941835;28;20232;-89
2023/11/04 01:19:13;;;;;;;6.63;4.80;;;;;;;8.07;59.64;96628.19;6943207;28;20236;-90
2023/11/04 01:22:35;;;;;;;5.43;4.90;;;;;;;8.08;60.23;96586.09;6941372;28;20585;-89
2023/11/04 01:25:59;;;;;;;5.13;4.30;;;;;;;8.26;59.18;96514.22;6928564;28;20216;-89
2023/11/04 01:29:21;;;;;;;8.93;5.17;;;;;;;8.48;59.07;96562.59;6916467;28;20249;-89
2023/11/04 01:32:43;;;;;;;10.37;4.53;;;;;;;8.26;59.64;96545.63;6915515;28;20209;-89
2023/11/04 01:36:05;;;;;;;5.13;4.63;;;;;;;7.58;60.03;96488.66;6926247;28;20219;-89
2023/11/04 01:39:27;;;;;;;6.93;4.60;;;;;;;8.30;59.97;96525.28;6945411;28;20244;-90
2023/11/04 01:42:50;;;;;;;4.90;4.10;;;;;;;8.32;59.27;96505.16;6946467;28;20210;-90
2023/11/04 01:46:17;;;;;;;8.20;3.87;;;;;;;8.39;60.59;96582.84;6946719;28;20854;-90
2023/11/04 01:49:39;;;;;;;4.73;3.87;;;;;;;8.01;60.73;96507.63;6947331;28;20229;-90
2023/11/04 01:53:00;;;;;;;5.50;4.27;;;;;;;8.82;60.67;96559.59;6945977;28;20639;-90
2023/11/04 01:56:25;;;;;;;4.53;4.10;;;;;;;9.42;60.19;96632.94;6945434;28;20261;-89
2023/11/04 01:59:48;;;;;;;4.77;3.90;;;;;;;9.71;59.46;96619.06;6947085;28;20705;-89
2023/11/04 02:03:11;;;;;;;6.50;3.70;;;;;;;8.99;59.23;96493.97;6945187;28;20213;-90
2023/11/04 02:06:33;;;;;;;4.07;3.40;;;;;;;8.91;57.92;96484.75;6946265;28;20210;-90
2023/11/04 02:09:55;;;;;;;3.53;3.23;;;;;;;9.42;57.61;96547.72;6946886;28;20746;-90
2023/11/04 02:13:20;;;;;;;4.30;3.23;;;;;;;9.11;58.66;96542.25;6953226;28;20206;-90
2023/11/04 02:16:48;;;;;;;5.30;3.07;;;;;;;9.29;59.07;96517.72;6946461;28;20233;-89
2023/11/04 02:20:14;;;;;;;3.37;3.10;;;;;;;9.48;58.04;96517.13;6946735;28;20236;-89
2023/11/04 02:23:37;;;;;;;3.87;3.43;;;;;;;9.77;57.61;96534.63;6945941;28;20703;-90
2023/11/04 02:27:00;;;;;;;4.77;3.20;;;;;;;9.52;57.16;96558.56;6944209;28;20239;-90
2023/11/04 02:30:22;;;;;;;4.60;2.87;;;;;;;9.28;57.82;96494.59;6945469;28;20317;-90
2023/11/04 02:33:44;;;;;;;2.90;2.70;;;;;;;9.03;57.27;96441.38;6945148;28;20681;-90
2023/11/04 02:37:06;;;;;;;2.97;2.70;;;;;;;10.30;56.49;96585.75;6917924;28;20237;-89
2023/11/04 02:40:29;;;;;;;5.80;2.90;;;;;;;9.95;55.72;96520.81;6918297;28;20204;-89
2023/11/04 02:43:51;;;;;;;3.33;2.97;;;;;;;10.20;56.11;96553.34;6941489;28;20219;-90
2023/11/04 02:47:12;;;;;;;3.13;2.83;;;;;;;9.21;55.84;96457.16;6972547;28;20295;-90
2023/11/04 02:50:35;;;;;;;6.23;3.10;;;;;;;8.84;57.83;96471.50;6950633;28;20638;-89
2023/11/04 02:53:56;;;;;;;3.23;2.93;;;;;;;9.63;56.90;96522.63;6945298;28;20213;-90
2023/11/04 02:57:19;;;;;;;5.03;3.20;;;;;;;9.17;57.72;96525.91;6944784;28;20298;-90
2023/11/04 03:00:41;;;;;;;3.27;3.00;;;;;;;9.97;56.62;96544.75;6944137;28;20212;-90
2023/11/04 03:04:06;;;;;;;3.47;3.00;;;;;;;9.93;56.65;96565.19;6944623;28;20214;-90
2023/11/04 03:07:28;;;;;;;3.43;2.77;;;;;;;9.46;55.89;96468.13;6944934;28;20256;-90
2023/11/04 03:10:49;;;;;;;2.93;2.73;;;;;;;9.66;56.16;96526.69;6944457;28;20240;-90
2023/11/04 03:14:14;;;;;;;3.50;2.70;;;;;;;9.49;56.47;96526.81;6944127;28;20583;-90
2023/11/04 03:17:36;;;;;;;6.07;4.80;;;;;;;8.98;58.53;96543.41;6937582;28;20684;-90
2023/11/04 03:20:58;;;;;;;3.37;3.07;;;;;;;9.65;58.09;96570.81;6944220;28;20685;-90
2023/11/04 03:24:19;;;;;;;3.23;2.93;;;;;;;9.37;57.15;96511.88;6944011;28;20237;-90
2023/11/04 03:27:41;;;;;;;4.90;3.10;;;;;;;9.09;57.07;96455.69;6944417;28;20260;-90
2023/11/04 03:31:05;;;;;;;3.23;2.93;;;;;;;9.43;56.82;96500.13;6920474;28;20232;-90
2023/11/04 03:34:31;;;;;;;3.67;3.20;;;;;;;9.39;56.87;96491.75;6941599;28;20636;-90
2023/11/04 03:37:55;;;;;;;4.33;2.90;;;;;;;8.81;57.02;96447.84;6943302;28;20237;-90
2023/11/04 03:41:29;;;;;;;6.70;2.60;;;;;;;9.00;57.03;96465.25;6943713;28;20216;-90
2023/11/04 03:45:00;;;;;;;4.73;2.60;;;;;;;8.99;56.84;96432.19;6943606;28;20577;-90
2023/11/04 03:48:48;;;;;;;3.43;3.10;;;;;;;9.43;56.40;96502.81;6943950;28;20228;-90
2023/11/04 03:52:23;;;;;;;3.20;2.90;;;;;;;8.78;57.01;96434.09;6942390;28;20214;-90
2023/11/04 03:55:47;;;;;;;3.87;2.90;;;;;;;9.02;56.48;96424.69;6942680;28;20214;-90
2023/11/04 03:59:09;;;;;;;5.77;3.23;;;;;;;9.84;56.11;96516.41;6942915;28;20227;-90
2023/11/04 04:02:31;;;;;;;2.90;2.70;;;;;;;9.73;56.23;96535.38;6943517;28;20279;-90
2023/11/04 04:05:54;;;;;;;5.03;3.37;;;;;;;9.58;56.04;96519.91;6919976;28;20204;-90
2023/11/04 04:09:30;;;;;;;6.10;3.73;;;;;;;8.98;55.72;96435.13;6937023;28;20228;-90
2023/11/04 04:12:54;;;;;;;3.00;2.80;;;;;;;8.97;55.98;96438.06;6927535;28;20237;-90
2023/11/04 04:16:18;;;;;;;3.53;2.73;;;;;;;9.13;56.25;96469.44;6915086;28;20230;-89
2023/11/04 04:19:44;;;;;;;4.10;2.60;;;;;;;8.69;56.14;96409.56;6924140;28;20240;-90
2023/11/04 04:23:13;;;;;;;3.10;2.80;;;;;;;8.85;57.20;96450.84;6921176;28;20249;-90
2023/11/04 04:26:39;;;;;;;3.93;3.40;;;;;;;8.89;57.79;96479.63;6946983;28;20207;-90
2023/11/04 04:30:01;;;;;;;3.87;2.90;;;;;;;8.78;57.93;96455.59;6934952;28;20372;-90
2023/11/04 04:33:23;;;;;;;4.50;3.07;;;;;;;8.07;58.24;96357.19;6915185;28;20205;-89
2023/11/04 04:36:45;;;;;;;3.17;2.83;;;;;;;8.59;58.90;96468.50;6920271;28;20375;-90
2023/11/04 04:40:09;;;;;;;2.97;2.77;;;;;;;8.54;59.25;96438.09;6941028;28;20229;-90
2023/11/04 04:43:43;;;;;;;3.20;2.90;;;;;;;8.45;58.69;96418.94;6941511;28;20220;-90
2023/11/04 04:47:06;;;;;;;3.13;2.83;;;;;;;8.85;58.34;96454.31;6951482;28;20201;-90
2023/11/04 04:50:28;;;;;;;3.00;2.80;;;;;;;9.03;57.78;96445.94;6942176;28;20210;-90
2023/11/04 04:53:50;;;;;;;3.07;2.87;;;;;;;9.34;57.31;96472.06;6939725;28;20205;-90
2023/11/04 04:57:13;;;;;;;3.33;2.63;;;;;;;9.17;57.00;96445.25;6953811;28;20228;-83
2023/11/04 05:00:34;;;;;;;4.23;3.20;;;;;;;8.69;57.85;96373.81;6973568;28;20671;-89
2023/11/04 05:04:07;;;;;;;2.90;2.70;;;;;;;8.93;57.15;96399.31;6966311;28;20827;-88
2023/11/04 05:07:29;;;;;;;5.13;3.27;;;;;;;9.32;57.07;96449.97;6944846;28;20592;-86
2023/11/04 05:10:52;;;;;;;3.20;2.93;;;;;;;9.34;57.13;96451.34;6953335;28;20208;-87
2023/11/04 05:14:15;;;;;;;3.63;3.27;;;;;;;9.20;56.44;96409.00;6946284;28;20228;-87
2023/11/04 05:17:37;;;;;;;4.23;3.43;;;;;;;9.22;57.35;96434.56;6948254;28;20230;-85
2023/11/04 05:21:03;;;;;;;3.10;2.90;;;;;;;9.32;57.56;96452.66;6969890;28;20205;-92
2023/11/04 05:28:00;;;;;;;2.90;2.70;;;;;;;9.05;57.18;96415.03;6961877;28;20239;-86
2023/11/04 05:31:23;;;;;;;3.60;3.00;;;;;;;9.37;57.40;96467.00;6946396;28;24681;-86
2023/11/04 05:34:46;;;;;;;3.23;3.03;;;;;;;8.94;57.88;96396.38;6971258;28;20335;-87
2023/11/04 05:38:08;;;;;;;3.00;2.80;;;;;;;9.41;57.28;96459.22;6963952;28;20266;-88
2023/11/04 05:41:31;;;;;;;3.80;3.10;;;;;;;9.36;57.27;96432.28;6965285;28;20199;-87
2023/11/04 05:44:57;;;;;;;3.37;3.07;;;;;;;8.92;57.84;96379.72;6958975;28;20198;-88
2023/11/04 05:48:20;;;;;;;7.57;3.30;;;;;;;8.93;57.71;96422.44;6977390;28;20226;-88
2023/11/04 05:51:41;;;;;;;6.10;3.30;;;;;;;8.51;58.37;96382.19;6958023;28;20201;-87
2023/11/04 05:55:04;;;;;;;5.57;3.63;;;;;;;9.35;58.19;96449.50;6919221;28;20248;-88
2023/11/04 05:58:25;;;;;;;3.60;3.30;;;;;;;8.67;58.00;96363.31;6928897;28;20233;-87
2023/11/04 06:01:47;;;;;;;3.40;3.10;;;;;;;9.32;57.13;96423.09;6943587;28;20256;-87
2023/11/04 06:05:12;;;;;;;3.93;3.50;;;;;;;9.29;56.77;96419.06;6939213;28;20206;-87
2023/11/04 06:08:35;;;;;;;5.43;3.30;;;;;;;9.26;57.09;96427.63;6946175;28;20226;-86
2023/11/04 06:11:57;;;;;;;4.03;3.30;;;;;;;8.89;57.80;96433.94;6942840;28;20218;-87
2023/11/04 06:15:19;;;;;;;4.93;3.70;;;;;;;8.61;58.19;96409.97;6957804;28;20228;-87
2023/11/04 06:18:40;;;;;;;5.83;3.40;;;;;;;8.69;59.02;96424.84;6973426;28;20699;-87
2023/11/04 06:22:03;;;;;;;3.70;3.40;;;;;;;8.50;58.73;96367.97;6972343;28;20246;-87
2023/11/04 06:25:25;;;;;;;3.87;3.50;;;;;;;8.90;58.62;96408.69;6946616;28;20623;-87
2023/11/04 06:28:46;;;;;;;3.60;3.30;;;;;;;9.28;58.04;96425.50;6946103;28;20290;-87
2023/11/04 06:32:08;;;;;;;4.50;3.60;;;;;;;8.74;57.93;96347.84;6939222;28;20340;-86
2023/11/04 06:35:29;;;;;;;3.43;3.13;;;;;;;9.09;57.84;96408.09;6934651;28;20211;-86
2023/11/04 06:38:52;;;;;;;4.13;3.10;;;;;;;8.99;58.10;96324.69;6928132;28;20591;-85
2023/11/04 06:42:18;;;;;;;3.87;3.47;;;;;;;9.58;58.50;96398.06;6953922;28;20269;-85
2023/11/04 06:46:41;;;;;;;3.00;2.80;;;;;;;9.35;57.72;96315.88;6939723;28;20250;-86
2023/11/04 06:50:18;;;;;;;3.13;2.83;;;;;;;9.71;58.82;96365.34;6925570;28;20227;-87
2023/11/04 06:53:40;;;;;;;5.27;3.20;;;;;;;9.51;58.60;96349.06;6916061;28;20324;-87
2023/11/04 07:00:41;;;;;;;3.07;2.87;;;;;;;9.44;57.94;96246.28;6880589;28;20210;-88
2023/11/04 07:04:04;;;;;;;5.30;2.60;;;;;;;10.31;57.70;96373.81;6922172;28;20192;-88
2023/11/04 07:07:38;;;;;;;2.97;2.77;;;;;;;10.14;57.20;96316.63;6924564;28;20251;-87
2023/11/04 07:24:10;;;;;;;2.63;2.37;;;;;;;10.23;56.73;96255.84;6913797;28;20654;-87
2023/11/04 07:27:32;;;;;;;2.93;2.50;;;;;;;10.51;56.49;96280.41;6913203;28;20326;-87
2023/11/04 07:30:53;;;;;;;2.53;2.33;;;;;;;10.95;56.76;96315.81;6933703;28;20202;-87
2023/11/04 07:34:15;;;;;;;2.70;2.50;;;;;;;11.35;56.65;96318.53;6947373;28;20688;-89
2023/11/04 07:37:37;;;;;;;7.03;3.70;;;;;;;11.45;57.21;96315.84;6928568;28;20241;-89
2023/11/04 07:41:00;;;;;;;3.60;3.30;;;;;;;11.52;57.09;96310.97;6944805;28;20673;-86
2023/11/04 07:44:21;;;;;;;3.33;3.10;;;;;;;11.97;56.10;96309.03;6944209;28;20331;-86
2023/11/04 07:47:43;;;;;;;4.20;3.10;;;;;;;11.74;55.66;96288.03;6943843;28;20223;-86
2023/11/04 07:51:05;;;;;;;3.37;3.07;;;;;;;11.93;55.73;96253.16;6943832;28;20288;-87
2023/11/04 07:54:27;;;;;;;3.50;2.93;;;;;;;12.34;54.96;96297.84;6943679;28;20235;-87
2023/11/04 07:57:50;;;;;;;3.30;3.00;;;;;;;12.50;54.32;96283.16;6943237;28;20318;-86
2023/11/04 08:01:11;;;;;;;3.60;3.30;;;;;;;12.73;54.22;96282.50;6943744;28;20357;-86
2023/11/04 08:04:33;;;;;;;3.13;2.93;;;;;;;12.26;53.01;96180.38;6944445;28;20239;-86
2023/11/04 08:07:54;;;;;;;4.70;2.50;;;;;;;12.07;51.19;96109.19;6944198;28;20697;-86
2023/11/04 08:11:16;;;;;;;3.77;2.40;;;;;;;13.47;49.48;96136.91;6944211;28;20202;-86
2023/11/04 08:14:40;;;;;;;3.07;2.20;;;;;;;16.24;42.10;96230.75;6947081;28;20204;-90
2023/11/04 08:18:02;;;;;;;3.23;1.80;;;;;;;17.80;38.95;96215.16;6944539;28;20357;-87
2023/11/04 08:21:29;;;;;;;2.00;1.60;;;;;;;17.16;38.56;96207.50;6945174;28;20238;-87
2023/11/04 08:24:50;;;;;;;1.60;1.50;;;;;;;17.94;38.48;96211.22;6945251;28;20185;-84
2023/11/04 08:28:12;;;;;;;1.77;1.67;;;;;;;17.17;39.56;96258.13;6946279;28;20260;-86
2023/11/04 08:31:35;;;;;;;1.50;1.40;;;;;;;17.88;37.73;96151.69;6940221;28;20223;-85
2023/11/04 08:34:58;;;;;;;1.83;1.73;;;;;;;20.58;33.31;96123.50;6919537;28;20209;-84
2023/11/04 08:38:20;;;;;;;2.00;1.80;;;;;;;20.30;34.58;96227.19;6942886;28;20237;-84
2023/11/04 08:41:42;;;;;;;1.83;1.33;;;;;;;20.37;32.68;96100.78;6944589;28;20577;-83
2023/11/04 08:45:05;;;;;;;1.60;1.50;;;;;;;18.52;35.30;96072.56;6944308;28;20535;-82
2023/11/04 08:48:28;;;;;;;1.63;1.53;;;;;;;18.94;35.55;96139.22;6944335;28;20228;-83
2023/11/04 08:51:50;;;;;;;4.23;1.73;;;;;;;16.79;39.63;96167.00;6943378;28;20611;-82
2023/11/04 08:55:13;;;;;;;1.50;1.40;;;;;;;16.55;40.73;96190.97;6943767;28;20207;-83
2023/11/04 08:58:35;;;;;;;3.13;1.80;;;;;;;15.78;43.04;96186.56;6944129;28;20264;-84
2023/11/04 09:01:57;;;;;;;1.80;1.70;;;;;;;15.35;44.09;96188.75;6943591;28;20211;-82
2023/11/04 09:05:21;;;;;;;1.80;1.70;;;;;;;14.59;45.03;96136.00;6943678;28;20229;-83
2023/11/04 09:08:43;;;;;;;2.00;1.80;;;;;;;14.92;45.38;96183.75;6942976;28;20222;-84
2023/11/04 09:12:05;;;;;;;1.90;1.80;;;;;;;15.16;44.67;96195.28;6943875;28;20241;-82
2023/11/04 09:15:28;;;;;;;2.00;1.83;;;;;;;14.53;45.01;96080.22;6944740;28;20203;-84
2023/11/04 09:18:50;;;;;;;2.93;1.80;;;;;;;15.02;43.87;96061.47;6944376;28;20318;-82
2023/11/04 09:22:12;;;;;;;1.80;1.70;;;;;;;15.74;43.42;96132.03;6944317;28;20207;-84
2023/11/04 09:25:34;;;;;;;1.80;1.70;;;;;;;15.97;42.91;96165.53;6943479;28;20685;-83
2023/11/04 09:28:56;;;;;;;1.70;1.60;;;;;;;16.37;42.90;96167.41;6943885;28;20242;-83
2023/11/04 09:32:18;;;;;;;2.40;2.17;;;;;;;15.66;44.00;96140.91;6944821;28;20203;-83
2023/11/04 09:35:41;;;;;;;1.60;1.50;;;;;;;15.48;44.31;96160.00;6948073;28;20248;-83
2023/11/04 09:39:06;;;;;;;1.70;1.60;;;;;;;15.91;43.34;96139.56;6945795;28;20297;-83
2023/11/04 09:42:28;;;;;;;2.43;2.00;;;;;;;15.68;43.15;95999.38;6945285;28;20189;-83
2023/11/04 09:45:50;;;;;;;2.23;1.60;;;;;;;16.89;41.25;96083.22;6945156;28;20204;-83
2023/11/04 09:49:12;;;;;;;2.17;1.60;;;;;;;16.87;41.84;96093.59;6944608;28;20216;-84
2023/11/04 09:52:35;;;;;;;1.80;1.70;;;;;;;15.69;41.36;96007.19;6943793;28;20238;-83
2023/11/04 09:55:58;;;;;;;1.80;1.70;;;;;;;16.20;41.94;96050.34;6946406;28;20218;-83
2023/11/04 09:59:19;;;;;;;1.60;1.50;;;;;;;16.03;41.07;95987.69;6948505;28;20237;-83
2023/11/04 10:02:41;;;;;;;2.30;1.70;;;;;;;17.32;40.90;96084.28;6948509;28;20197;-83
2023/11/04 10:06:04;;;;;;;2.07;1.97;;;;;;;16.94;41.56;96055.09;6949239;28;20608;-83
2023/11/04 10:09:25;;;;;;;2.10;2.00;;;;;;;16.94;41.09;96019.69;6948753;28;20225;-85
2023/11/04 10:12:48;;;;;;;1.73;1.63;;;;;;;16.98;41.36;96054.13;6948653;28;20220;-88
2023/11/04 10:16:12;;;;;;;1.50;1.40;;;;;;;16.97;40.45;96027.22;6945945;28;20292;-87
2023/11/04 10:19:34;;;;;;;2.60;1.67;;;;;;;16.45;41.19;95946.47;6939645;28;20236;-86
2023/11/04 10:22:56;;;;;;;1.60;1.50;;;;;;;16.84;41.36;96034.38;6946205;28;20251;-86
2023/11/04 10:26:20;;;;;;;2.63;1.43;;;;;;;16.15;41.57;96015.16;6960729;28;20350;-85
2023/11/04 10:29:44;;;;;;;1.50;1.40;;;;;;;15.94;42.46;96019.44;6977069;28;20240;-86
2023/11/04 10:33:08;;;;;;;1.57;1.50;;;;;;;15.73;42.45;96016.34;6973375;28;20194;-86
2023/11/04 10:36:30;;;;;;;1.57;1.33;;;;;;;16.57;41.30;95985.56;6974831;28;20209;-88
2023/11/04 10:39:55;;;;;;;1.37;1.27;;;;;;;15.80;41.82;95984.13;6938269;28;20298;-85
2023/11/04 10:43:19;;;;;;;1.30;1.30;;;;;;;15.60;42.08;95981.06;6946607;28;20205;-87
2023/11/04 10:46:45;;;;;;;1.80;1.70;;;;;;;16.43;41.44;95995.72;6952157;28;20200;-85
2023/11/04 10:50:12;;;;;;;1.60;1.50;;;;;;;15.55;41.22;95922.25;6935865;28;20220;-83
2023/11/04 10:53:42;;;;;;;1.57;1.50;;;;;;;15.51;41.41;95974.78;6932204;28;20187;-87
2023/11/04 10:57:09;;;;;;;29.90;26.70;;;;;;;16.03;40.81;95945.03;6946109;28;20266;-85
2023/11/04 11:00:34;;;;;;;3.30;3.00;;;;;;;15.87;40.80;95945.69;6942463;28;20709;-89
2023/11/04 11:03:58;;;;;;;17.43;15.57;;;;;;;16.40;40.75;95946.59;6935046;28;20646;-88
2023/11/04 11:07:19;;;;;;;6.23;3.60;;;;;;;16.08;40.66;95925.88;6940229;28;20276;-86
2023/11/04 11:10:44;;;;;;;8.80;7.47;;;;;;;16.10;40.83;95891.03;6927885;28;20202;-85
2023/11/04 11:14:07;;;;;;;1.70;1.60;;;;;;;15.89;40.40;95919.00;6929032;28;20224;-87
2023/11/04 11:17:32;;;;;;;1.70;1.60;;;;;;;16.33;40.04;95914.38;6930136;28;20621;-88
2023/11/04 11:20:55;;;;;;;1.50;1.40;;;;;;;16.45;39.74;95890.16;6941254;28;20734;-87
2023/11/04 11:24:17;;;;;;;1.40;1.30;;;;;;;16.55;39.52;95916.25;6938122;28;20770;-88
2023/11/04 11:27:45;;;;;;;1.63;1.53;;;;;;;16.91;39.21;95900.56;6942456;28;20235;-89
2023/11/04 11:31:11;;;;;;;1.80;1.40;;;;;;;16.96;38.62;95905.88;6920890;28;20207;-86
2023/11/04 11:34:33;;;;;;;2.57;1.50;;;;;;;16.84;38.74;95919.28;6943318;28;20204;-87
2023/11/04 11:37:56;;;;;;;1.60;1.50;;;;;;;17.15;39.13;95901.00;6938908;28;20750;-85
2023/11/04 11:41:18;;;;;;;3.00;2.40;;;;;;;17.06;38.60;95914.56;6952609;28;20249;-86
2023/11/04 11:44:40;;;;;;;1.60;1.50;;;;;;;16.60;39.29;95894.38;6947208;28;20590;-87
2023/11/04 11:48:02;;;;;;;2.07;1.60;;;;;;;16.82;39.72;95875.28;6931129;28;20366;-87
2023/11/04 11:51:23;;;;;;;2.10;1.97;;;;;;;17.21;38.79;95899.72;6935203;28;20299;-88
2023/11/04 11:54:46;;;;;;;1.57;1.47;;;;;;;17.03;38.37;95865.38;6939238;28;20218;-85
2023/11/04 11:58:09;;;;;;;1.70;1.60;;;;;;;16.91;38.62;95855.13;6952349;28;20227;-85
2023/11/04 12:01:31;;;;;;;1.60;1.50;;;;;;;17.14;39.24;95848.47;6947055;28;20200;-85
2023/11/04 12:04:52;;;;;;;2.30;1.70;;;;;;;16.98;38.64;95844.56;6958705;28;20299;-85
2023/11/04 12:08:14;;;;;;;1.60;1.50;;;;;;;16.90;37.80;95850.00;6940341;28;20364;-85
2023/11/04 12:11:38;;;;;;;1.67;1.50;;;;;;;17.00;37.93;95866.03;6934578;28;20306;-85
2023/11/04 12:15:02;;;;;;;1.77;1.67;;;;;;;16.94;38.27;95865.41;6946693;28;20297;-84
2023/11/04 12:18:24;;;;;;;1.63;1.53;;;;;;;16.85;37.42;95861.03;6946957;28;20235;-84
2023/11/04 12:21:45;;;;;;;2.67;1.33;;;;;;;16.50;37.20;95851.13;6947654;28;20247;-85
2023/11/04 12:25:07;;;;;;;1.20;1.20;;;;;;;16.51;38.12;95850.03;6955957;28;20281;-84
2023/11/04 12:28:30;;;;;;;1.70;1.60;;;;;;;16.07;37.78;95755.78;6958703;28;20264;-85
2023/11/04 12:31:51;;;;;;;1.70;1.60;;;;;;;16.73;37.46;95822.72;6933294;28;20347;-85
2023/11/04 12:35:13;;;;;;;2.17;2.00;;;;;;;16.63;37.58;95814.88;6933094;28;20609;-84
2023/11/04 12:38:35;;;;;;;3.13;1.90;;;;;;;16.45;38.00;95786.81;6942096;28;20247;-85
2023/11/04 12:41:57;;;;;;;1.97;1.77;;;;;;;16.05;39.08;95743.63;6942850;28;20199;-84
2023/11/04 12:45:22;;;;;;;1.60;1.50;;;;;;;15.20;41.54;95696.94;6955100;28;20200;-84
2023/11/04 12:48:44;;;;;;;1.47;1.37;;;;;;;15.50;39.41;95691.59;6940970;28;20709;-85
2023/11/04 12:52:06;;;;;;;2.07;1.30;;;;;;;15.91;39.11;95721.16;6940845;28;20204;-85
2023/11/04 12:55:28;;;;;;;1.43;1.43;;;;;;;15.94;38.39;95701.53;6935772;28;20208;-85
2023/11/04 12:58:50;;;;;;;1.80;1.50;;;;;;;16.02;38.95;95679.03;6937901;28;20263;-85
2023/11/04 13:02:13;;;;;;;1.27;1.27;;;;;;;16.21;38.20;95699.41;6960447;28;20211;-84
2023/11/04 13:05:34;;;;;;;2.07;1.33;;;;;;;16.39;38.56;95719.31;6961233;28;20289;-83
2023/11/04 13:08:56;;;;;;;1.40;1.30;;;;;;;16.30;38.28;95708.38;6938397;28;20261;-89
2023/11/04 13:12:18;;;;;;;2.33;1.53;;;;;;;16.47;38.87;95685.91;6937252;28;20205;-86
2023/11/04 13:15:39;;;;;;;1.93;1.83;;;;;;;16.45;38.70;95702.53;6937004;28;20374;-86
2023/11/04 13:19:02;;;;;;;2.33;2.13;;;;;;;15.77;39.48;95706.91;6952437;28;20376;-85
2023/11/04 13:22:25;;;;;;;4.57;2.37;;;;;;;15.87;39.77;95717.50;6941818;28;20212;-84
2023/11/04 13:25:46;;;;;;;2.83;2.00;;;;;;;15.80;40.01;95714.44;6954376;28;20208;-84
2023/11/04 13:29:08;;;;;;;4.03;1.87;;;;;;;15.61;41.06;95697.53;6929622;28;20251;-84
2023/11/04 13:32:30;;;;;;;1.90;1.70;;;;;;;15.81;41.53;95703.22;6940827;28;20623;-85
2023/11/04 13:35:53;;;;;;;1.30;1.30;;;;;;;15.41;41.31;95689.94;6946832;28;20335;-84
2023/11/04 13:39:14;;;;;;;1.83;1.73;;;;;;;15.48;41.61;95665.84;6954010;28;20383;-86
2023/11/04 13:42:36;;;;;;;1.60;1.50;;;;;;;15.25;41.93;95629.78;6948726;28;20229;-85
2023/11/04 13:45:57;;;;;;;2.60;1.90;;;;;;;15.33;41.18;95625.56;6945268;28;20350;-83
2023/11/04 13:49:19;;;;;;;1.53;1.40;;;;;;;15.26;41.80;95631.38;6942226;28;20378;-84
2023/11/04 13:52:43;;;;;;;1.97;1.63;;;;;;;15.04;41.75;95619.78;6942444;28;20317;-85
2023/11/04 13:56:04;;;;;;;1.47;1.37;;;;;;;14.37;42.46;95566.66;6944532;28;20700;-85
2023/11/04 13:59:26;;;;;;;1.60;1.50;;;;;;;14.78;43.06;95643.19;6959531;28;20259;-83
2023/11/04 14:02:47;;;;;;;2.20;1.40;;;;;;;14.50;42.90;95647.09;6936644;28;20265;-83
2023/11/04 14:06:09;;;;;;;1.53;1.43;;;;;;;14.83;42.21;95608.63;6939868;28;20684;-83
2023/11/04 14:09:33;;;;;;;1.63;1.53;;;;;;;14.91;43.59;95591.59;6945239;28;20288;-86
2023/11/04 14:12:55;;;;;;;1.87;1.70;;;;;;;14.82;43.78;95639.53;6949039;28;20238;-86
2023/11/04 14:16:16;;;;;;;3.87;1.70;;;;;;;14.21;45.15;95636.66;6946320;28;20288;-89
2023/11/04 14:19:38;;;;;;;1.70;1.60;;;;;;;14.22;44.37;95581.34;6946939;28;20326;-85
2023/11/04 14:23:00;;;;;;;1.30;1.23;;;;;;;14.35;45.24;95644.75;6946620;28;20218;-86
2023/11/04 14:26:23;;;;;;;4.03;1.77;;;;;;;13.94;46.32;95638.56;6946856;28;20210;-85
2023/11/04 14:29:44;;;;;;;1.90;1.67;;;;;;;13.84;47.02;95636.06;6972392;28;20321;-84
2023/11/04 14:33:14;;;;;;;1.73;1.63;;;;;;;13.30;48.14;95546.78;6973160;28;20208;-84
2023/11/04 14:36:35;;;;;;;2.07;1.87;;;;;;;13.85;48.27;95643.88;6974811;28;20190;-85
2023/11/04 14:39:58;;;;;;;1.73;1.63;;;;;;;13.41;50.02;95638.28;6966378;28;20697;-85
2023/11/04 14:43:21;;;;;;;1.60;1.50;;;;;;;13.18;51.35;95639.25;6942834;28;20647;-85
2023/11/04 14:46:42;;;;;;;1.50;1.40;;;;;;;13.43;50.89;95619.84;6944075;28;20298;-85
2023/11/04 14:50:04;;;;;;;1.67;1.57;;;;;;;13.99;50.13;95631.13;6945324;28;20373;-86
2023/11/04 14:53:26;;;;;;;1.87;1.77;;;;;;;14.09;49.49;95633.63;6944646;28;20302;-87
2023/11/04 14:56:48;;;;;;;2.87;1.63;;;;;;;14.07;48.79;95616.88;6944763;28;20572;-87
2023/11/04 15:00:12;;;;;;;1.40;1.40;;;;;;;13.90;49.04;95627.53;6952360;28;20325;-87
2023/11/04 15:03:34;;;;;;;1.60;1.50;;;;;;;14.17;48.98;95618.56;6944659;28;20290;-88
2023/11/04 15:06:56;;;;;;;1.87;1.77;;;;;;;14.12;49.09;95602.44;6955249;28;20686;-87
2023/11/04 15:10:17;;;;;;;1.70;1.60;;;;;;;14.24;48.30;95611.66;6944505;28;20301;-86
2023/11/04 15:13:39;;;;;;;1.70;1.60;;;;;;;14.73;46.67;95613.47;6948753;28;20207;-87
2023/11/04 15:17:02;;;;;;;1.60;1.50;;;;;;;14.77;47.22;95571.09;6966145;28;20242;-87
2023/11/04 15:20:23;;;;;;;1.37;1.37;;;;;;;14.57;47.51;95539.06;6963259;28;20231;-84
2023/11/04 15:23:45;;;;;;;1.60;1.50;;;;;;;14.19;47.24;95532.41;6947877;28;20211;-86
2023/11/04 15:27:06;;;;;;;1.93;1.60;;;;;;;14.06;48.74;95539.44;6942189;28;20250;-85
2023/11/04 15:30:28;;;;;;;1.70;1.60;;;;;;;13.32;52.38;95483.16;6952603;28;20304;-87
2023/11/04 15:33:51;;;;;;;1.30;1.30;;;;;;;12.92;54.01;95420.97;6943018;28;20729;-87
2023/11/04 15:37:12;;;;;;;1.47;1.40;;;;;;;13.33;53.71;95416.34;6942816;28;20331;-87
2023/11/04 15:40:34;;;;;;;1.80;1.70;;;;;;;13.15;54.12;95447.81;6956210;28;20257;-86
2023/11/04 15:43:55;;;;;;;1.70;1.60;;;;;;;13.53;53.69;95475.41;6959175;28;20228;-87
2023/11/04 15:47:17;;;;;;;1.43;1.43;;;;;;;12.93;54.74;95457.72;6947347;28;20203;-86
2023/11/04 15:50:40;;;;;;;2.70;1.90;;;;;;;12.70;55.35;95439.78;6954801;28;20301;-86
2023/11/04 15:54:02;;;;;;;2.57;2.30;;;;;;;13.00;55.37;95496.81;6944664;28;20676;-87
2023/11/04 15:57:24;;;;;;;3.77;2.30;;;;;;;13.22;55.71;95513.09;6942991;28;20553;-86
2023/11/04 16:00:45;;;;;;;2.10;2.00;;;;;;;12.60;55.37;95385.91;6966733;28;20332;-87
2023/11/04 16:04:07;;;;;;;2.50;2.30;;;;;;;13.39;55.55;95513.28;6943991;28;20767;-86
2023/11/04 16:07:30;;;;;;;2.47;1.83;;;;;;;13.70;54.86;95508.03;6943268;28;20772;-87
2023/11/04 16:10:53;;;;;;;3.40;2.60;;;;;;;13.73;55.13;95504.72;6943104;28;20345;-87
2023/11/04 16:14:14;;;;;;;2.13;1.70;;;;;;;13.35;56.34;95496.09;6943530;28;20206;-86
2023/11/04 16:17:36;;;;;;;2.03;1.90;;;;;;;13.73;55.60;95502.81;6964992;28;20265;-86
2023/11/04 16:20:58;;;;;;;2.10;1.90;;;;;;;13.69;55.48;95482.88;6942006;28;20720;-86